createdAt,value
2018-02-05T00:00:18.852Z,21.00
2018-02-05T00:02:45.124Z,20.63
2018-02-05T00:05:11.384Z,23.73
2018-02-05T00:07:38.459Z,21.50
2018-02-05T00:10:04.726Z,20.43
2018-02-05T00:12:31.015Z,22.70
2018-02-05T00:14:57.302Z,22.93
2018-02-05T00:17:24.319Z,22.87
2018-02-05T00:19:50.610Z,20.03
2018-02-05T00:22:17.624Z,21.50
2018-02-05T00:24:43.886Z,20.20
2018-02-05T00:27:10.889Z,21.00
2018-02-05T00:29:37.163Z,21.10
2018-02-05T00:32:04.201Z,17.07
2018-02-05T00:34:31.216Z,30.50
2018-02-05T00:36:57.497Z,18.57
2018-02-05T00:39:23.803Z,20.17
2018-02-05T00:41:50.849Z,22.83
2018-02-05T00:44:17.135Z,22.13
2018-02-05T00:46:43.429Z,20.37
2018-02-05T00:49:09.663Z,20.93
2018-02-05T00:51:35.918Z,20.30
2018-02-05T00:54:02.223Z,22.43
2018-02-05T00:56:28.513Z,18.40
2018-02-05T00:58:55.600Z,20.83
2018-02-05T01:01:21.943Z,20.60
2018-02-05T01:03:48.198Z,20.83
2018-02-05T01:06:14.508Z,21.40
2018-02-05T01:08:40.790Z,20.33
2018-02-05T01:11:07.064Z,18.77
2018-02-05T01:13:33.342Z,23.60
2018-02-05T01:15:59.647Z,18.07
2018-02-05T01:18:25.907Z,21.67
2018-02-05T01:20:52.208Z,20.93
2018-02-05T01:23:18.506Z,23.10
2018-02-05T01:25:44.736Z,16.00
2018-02-05T01:28:11.027Z,24.07
2018-02-05T01:30:37.295Z,22.60
2018-02-05T01:33:03.591Z,27.47
2018-02-05T01:35:30.601Z,23.20
2018-02-05T01:37:56.917Z,20.20
2018-02-05T01:40:23.175Z,15.40
2018-02-05T01:42:49.477Z,20.73
2018-02-05T01:45:15.710Z,20.10
2018-02-05T01:47:41.947Z,19.03
2018-02-05T01:50:08.227Z,18.30
2018-02-05T01:52:35.228Z,20.33
2018-02-05T01:55:01.492Z,21.33
2018-02-05T01:57:27.760Z,21.43
2018-02-05T01:59:54.010Z,20.70
2018-02-05T02:02:20.345Z,20.53
2018-02-05T02:04:46.622Z,17.00
2018-02-05T02:07:12.904Z,15.70
2018-02-05T02:09:39.175Z,16.87
2018-02-05T02:12:05.437Z,23.50
2018-02-05T02:14:31.710Z,19.37
2018-02-05T02:16:57.958Z,14.80
2018-02-05T02:19:24.262Z,19.57
2018-02-05T02:21:50.562Z,19.20
2018-02-05T02:24:16.835Z,24.83
2018-02-05T02:26:43.108Z,22.30
2018-02-05T02:29:10.136Z,18.40
2018-02-05T02:31:36.449Z,24.00
2018-02-05T02:34:02.735Z,21.20
2018-02-05T02:36:29.055Z,19.47
2018-02-05T02:38:55.294Z,20.60
2018-02-05T02:41:21.531Z,19.93
2018-02-05T02:43:47.800Z,23.80
2018-02-05T02:46:14.069Z,23.40
2018-02-05T02:48:41.089Z,20.90
2018-02-05T02:51:07.328Z,27.43
2018-02-05T02:53:34.307Z,29.03
2018-02-05T02:56:00.655Z,33.60
2018-02-05T02:58:26.934Z,28.00
2018-02-05T03:00:53.974Z,24.27
2018-02-05T03:03:20.255Z,26.03
2018-02-05T03:05:46.512Z,29.97
2018-02-05T03:08:12.796Z,19.53
2018-02-05T03:10:39.089Z,25.93
2018-02-05T03:13:05.346Z,22.70
2018-02-05T03:15:32.384Z,24.93
2018-02-05T03:17:59.361Z,21.37
2018-02-05T03:20:25.610Z,28.30
2018-02-05T03:22:51.882Z,21.90
2018-02-05T03:25:18.143Z,24.90
2018-02-05T03:27:44.400Z,20.53
2018-02-05T03:30:10.636Z,23.13
2018-02-05T03:32:36.899Z,24.93
2018-02-05T03:35:03.183Z,24.67
2018-02-05T03:37:29.485Z,25.60
2018-02-05T03:39:55.723Z,26.67
2018-02-05T03:42:22.003Z,23.63
2018-02-05T03:44:48.249Z,25.67
2018-02-05T03:47:15.235Z,23.80
2018-02-05T03:49:41.535Z,24.40
2018-02-05T03:52:08.563Z,26.33
2018-02-05T03:54:34.830Z,25.30
2018-02-05T03:57:01.102Z,21.57
2018-02-05T03:59:27.355Z,31.57
2018-02-05T04:01:53.646Z,26.63
2018-02-05T04:04:20.148Z,27.43
2018-02-05T04:06:53.491Z,31.40
2018-02-05T04:09:19.734Z,28.83
2018-02-05T04:11:46.781Z,28.20
2018-02-05T04:14:13.031Z,26.47
2018-02-05T04:16:40.291Z,30.07
2018-02-05T04:19:07.316Z,31.10
2018-02-05T04:21:33.631Z,33.70
2018-02-05T04:23:59.999Z,29.97
2018-02-05T04:26:26.984Z,26.23
2018-02-05T04:28:53.273Z,28.27
2018-02-05T04:31:20.341Z,34.03
2018-02-05T04:33:47.351Z,27.97
2018-02-05T04:36:13.700Z,38.20
2018-02-05T04:38:40.765Z,33.47
2018-02-05T04:41:07.806Z,31.97
2018-02-05T04:43:36.389Z,34.67
2018-02-05T04:46:02.777Z,35.70
2018-02-05T04:48:29.057Z,31.67
2018-02-05T04:50:55.329Z,37.00
2018-02-05T04:53:21.595Z,39.23
2018-02-05T04:55:48.626Z,46.40
2018-02-05T04:58:15.788Z,40.50
2018-02-05T05:00:42.032Z,39.70
2018-02-05T05:03:09.064Z,48.87
2018-02-05T05:05:35.364Z,38.13
2018-02-05T05:08:01.668Z,40.30
2018-02-05T05:10:27.926Z,42.80
2018-02-05T05:12:54.206Z,46.30
2018-02-05T05:15:21.245Z,54.70
2018-02-05T05:17:47.511Z,49.20
2018-02-05T05:20:13.808Z,56.00
2018-02-05T05:22:40.849Z,49.03
2018-02-05T05:25:07.123Z,49.60
2018-02-05T05:27:33.402Z,47.83
2018-02-05T05:29:59.679Z,45.83
2018-02-05T05:32:25.938Z,51.10
2018-02-05T05:34:52.267Z,47.80
2018-02-05T05:37:19.535Z,44.13
2018-02-05T05:39:45.876Z,49.33
2018-02-05T05:42:12.180Z,46.90
2018-02-05T05:44:38.454Z,54.93
2018-02-05T05:47:05.463Z,53.97
2018-02-05T05:49:31.693Z,53.47
2018-02-05T05:51:58.000Z,48.90
2018-02-05T05:54:24.377Z,54.57
2018-02-05T05:56:51.406Z,50.50
2018-02-05T05:59:17.698Z,41.70
2018-02-05T06:01:43.968Z,44.07
2018-02-05T06:04:10.242Z,49.53
2018-02-05T06:06:37.257Z,61.27
2018-02-05T06:09:03.586Z,55.27
2018-02-05T06:11:29.850Z,54.10
2018-02-05T06:13:56.838Z,58.47
2018-02-05T06:16:23.155Z,53.73
2018-02-05T06:18:49.465Z,52.40
2018-02-05T06:21:15.707Z,60.57
2018-02-05T06:23:41.985Z,56.07
2018-02-05T06:26:08.277Z,53.23
2018-02-05T06:28:34.557Z,58.00
2018-02-05T06:31:00.813Z,54.27
2018-02-05T06:33:27.351Z,57.37
2018-02-05T06:35:54.007Z,53.73
2018-02-05T06:38:19.913Z,64.50
2018-02-05T06:40:46.199Z,54.93
2018-02-05T06:43:13.936Z,54.67
2018-02-05T06:45:40.223Z,56.30
2018-02-05T06:48:07.220Z,49.93
2018-02-05T06:54:05.382Z,61.43
2018-02-05T06:56:31.642Z,67.77
2018-02-05T06:58:58.015Z,56.03
2018-02-05T07:01:25.036Z,50.57
2018-02-05T07:03:51.306Z,52.63
2018-02-05T07:06:18.290Z,53.43
2018-02-05T07:08:44.604Z,53.73
2018-02-05T07:11:10.868Z,56.10
2018-02-05T07:13:37.104Z,56.67
2018-02-05T07:16:03.407Z,51.00
2018-02-05T07:18:29.704Z,52.90
2018-02-05T07:20:56.717Z,50.20
2018-02-05T07:23:23.013Z,68.57
2018-02-05T07:25:49.247Z,51.53
2018-02-05T07:28:15.567Z,51.90
2018-02-05T07:30:41.831Z,55.77
2018-02-05T07:33:08.073Z,58.60
2018-02-05T07:35:34.343Z,53.87
2018-02-05T07:38:00.608Z,55.13
2018-02-05T07:40:26.915Z,58.23
2018-02-05T07:42:53.166Z,60.43
2018-02-05T07:45:19.399Z,59.03
2018-02-05T07:47:45.825Z,61.10
2018-02-05T07:50:12.071Z,64.33
2018-02-05T07:52:38.305Z,59.30
2018-02-05T07:55:04.584Z,58.40
2018-02-05T07:57:30.840Z,61.10
2018-02-05T07:59:57.504Z,57.93
2018-02-05T08:02:23.906Z,61.30
2018-02-05T08:04:50.306Z,53.70
2018-02-05T08:07:17.520Z,56.17
2018-02-05T08:09:43.910Z,51.60
2018-02-05T08:12:10.196Z,54.80
2018-02-05T08:14:36.956Z,65.30
2018-02-05T08:17:03.197Z,57.70
2018-02-05T08:19:29.489Z,54.30
2018-02-05T08:21:55.794Z,56.50
2018-02-05T08:24:22.087Z,55.53
2018-02-05T08:26:49.107Z,52.57
2018-02-05T08:29:16.929Z,51.97
2018-02-05T08:31:43.188Z,51.93
2018-02-05T08:34:09.463Z,64.60
2018-02-05T08:36:35.698Z,54.17
2018-02-05T08:39:01.948Z,47.13
2018-02-05T08:41:28.187Z,55.03
2018-02-05T08:43:54.470Z,54.20
2018-02-05T08:46:20.713Z,61.90
2018-02-05T08:48:46.994Z,58.37
2018-02-05T08:51:13.266Z,61.77
2018-02-05T08:53:40.267Z,59.83
2018-02-05T08:56:06.548Z,55.00
2018-02-05T08:58:32.840Z,58.03
2018-02-05T09:00:59.088Z,58.33
2018-02-05T09:03:26.084Z,79.00
2018-02-05T09:05:52.352Z,57.93
2018-02-05T09:08:18.650Z,57.43
2018-02-05T09:10:44.977Z,55.70
2018-02-05T09:13:11.253Z,57.43
2018-02-05T09:15:38.335Z,64.00
2018-02-05T09:18:04.595Z,60.33
2018-02-05T09:20:30.883Z,50.27
2018-02-05T09:22:57.136Z,52.70
2018-02-05T09:25:23.437Z,46.67
2018-02-05T09:27:50.501Z,44.50
2018-02-05T09:30:16.767Z,43.17
2018-02-05T09:32:43.059Z,42.83
2018-02-05T09:35:09.351Z,41.20
2018-02-05T09:37:35.651Z,38.77
2018-02-05T09:40:01.948Z,39.00
2018-02-05T09:45:27.895Z,42.50
2018-02-05T09:47:54.167Z,47.73
2018-02-05T09:50:20.477Z,49.63
2018-02-05T09:52:46.704Z,41.60
2018-02-05T09:55:13.315Z,39.90
2018-02-05T09:57:39.569Z,38.37
2018-02-05T10:00:05.857Z,36.93
2018-02-05T10:02:32.873Z,39.77
2018-02-05T10:04:59.207Z,37.80
2018-02-05T10:07:25.465Z,35.23
2018-02-05T10:09:52.451Z,37.03
2018-02-05T10:12:18.785Z,40.20
2018-02-05T10:14:45.100Z,37.73
2018-02-05T10:17:11.346Z,32.90
2018-02-05T10:19:37.595Z,34.97
2018-02-05T10:22:03.855Z,38.47
2018-02-05T10:24:30.874Z,46.40
2018-02-05T10:26:57.150Z,40.17
2018-02-05T10:29:24.212Z,38.60
2018-02-05T10:31:51.368Z,39.73
2018-02-05T10:34:17.706Z,37.57
2018-02-05T10:36:43.996Z,35.30
2018-02-05T10:39:10.984Z,35.17
2018-02-05T10:41:37.279Z,41.27
2018-02-05T10:44:04.333Z,40.83
2018-02-05T10:46:31.381Z,39.70
2018-02-05T10:48:57.731Z,41.27
2018-02-05T10:51:24.070Z,39.00
2018-02-05T10:53:50.379Z,41.47
2018-02-05T10:56:16.672Z,37.73
2018-02-05T10:58:42.965Z,39.90
2018-02-05T11:01:09.284Z,42.90
2018-02-05T11:03:36.516Z,38.80
2018-02-05T11:06:03.586Z,33.20
2018-02-05T11:08:29.912Z,33.73
2018-02-05T11:10:56.232Z,38.43
2018-02-05T11:13:23.343Z,41.00
2018-02-05T11:15:49.798Z,32.33
2018-02-05T11:18:16.843Z,28.23
2018-02-05T11:20:43.097Z,26.23
2018-02-05T11:23:09.419Z,25.20
2018-02-05T11:25:37.171Z,27.37
2018-02-05T11:28:04.159Z,27.23
2018-02-05T11:30:30.459Z,37.10
2018-02-05T11:32:57.493Z,53.53
2018-02-05T11:35:23.881Z,48.93
2018-02-05T11:37:50.161Z,42.93
2018-02-05T11:40:17.208Z,42.80
2018-02-05T11:42:44.279Z,48.77
2018-02-05T11:45:10.602Z,42.93
2018-02-05T11:47:36.920Z,38.70
2018-02-05T11:50:03.982Z,41.20
2018-02-05T11:52:30.984Z,49.73
2018-02-05T11:54:57.308Z,42.97
2018-02-05T11:57:24.506Z,35.23
2018-02-05T11:59:51.555Z,36.53
2018-02-05T12:02:18.607Z,38.93
2018-02-05T12:04:45.657Z,40.77
2018-02-05T12:07:11.971Z,44.30
2018-02-05T12:09:39.027Z,73.10
2018-02-05T12:12:06.081Z,35.90
2018-02-05T12:14:33.155Z,36.67
2018-02-05T12:16:59.463Z,30.23
2018-02-05T12:19:26.478Z,33.20
2018-02-05T12:21:52.809Z,27.00
2018-02-05T12:24:19.076Z,30.03
2018-02-05T12:26:45.399Z,23.13
2018-02-05T12:29:11.782Z,22.30
2018-02-05T12:31:38.064Z,19.20
2018-02-05T12:34:04.362Z,25.20
2018-02-05T12:36:30.676Z,19.77
2018-02-05T12:38:57.000Z,19.00
2018-02-05T12:41:24.152Z,18.03
2018-02-05T12:43:50.453Z,16.60
2018-02-05T12:46:16.783Z,22.70
2018-02-05T12:48:43.133Z,20.33
2018-02-05T12:51:09.419Z,20.30
2018-02-05T12:53:36.423Z,20.80
2018-02-05T12:56:02.713Z,18.70
2018-02-05T12:58:29.779Z,17.10
2018-02-05T13:01:02.166Z,16.87
2018-02-05T13:03:33.547Z,17.13
2018-02-05T13:06:00.097Z,14.53
2018-02-05T13:08:27.127Z,15.60
2018-02-05T13:10:53.374Z,13.87
2018-02-05T13:13:20.369Z,15.13
2018-02-05T13:15:46.660Z,20.53
2018-02-05T13:18:13.648Z,17.40
2018-02-05T13:20:39.976Z,16.47
2018-02-05T13:23:06.310Z,13.67
2018-02-05T13:25:32.546Z,11.50
2018-02-05T13:27:58.830Z,12.60
2018-02-05T13:30:25.867Z,14.67
2018-02-05T13:32:52.929Z,20.93
2018-02-05T13:35:19.969Z,11.37
2018-02-05T13:37:47.041Z,17.23
2018-02-05T13:40:13.349Z,13.63
2018-02-05T13:42:40.368Z,14.37
2018-02-05T13:45:06.694Z,18.30
2018-02-05T13:47:33.006Z,12.37
2018-02-05T13:49:59.309Z,10.67
2018-02-05T13:52:30.284Z,14.30
2018-02-05T13:55:09.523Z,15.13
2018-02-05T13:57:35.928Z,18.83
2018-02-05T14:00:02.260Z,17.10
2018-02-05T14:02:28.540Z,17.80
2018-02-05T14:04:55.343Z,18.80
2018-02-05T14:07:21.622Z,17.53
2018-02-05T14:09:48.005Z,20.10
2018-02-05T14:12:14.305Z,15.97
2018-02-05T14:14:40.661Z,15.30
2018-02-05T14:17:06.937Z,17.80
2018-02-05T14:19:33.233Z,15.23
2018-02-05T14:21:59.555Z,21.00
2018-02-05T14:24:26.069Z,12.00
2018-02-05T14:26:52.399Z,19.97
2018-02-05T14:29:18.689Z,13.10
2018-02-05T14:31:45.033Z,19.13
2018-02-05T14:34:11.409Z,15.27
2018-02-05T14:36:37.713Z,12.87
2018-02-05T14:39:04.730Z,14.93
2018-02-05T14:41:31.009Z,11.93
2018-02-05T14:43:57.290Z,11.60
2018-02-05T14:46:24.306Z,9.73
2018-02-05T14:48:50.586Z,11.07
2018-02-05T14:51:17.630Z,14.10
2018-02-05T14:53:44.853Z,13.47
2018-02-05T14:56:12.667Z,14.50
2018-02-05T14:58:39.703Z,15.83
2018-02-05T15:01:06.743Z,15.43
2018-02-05T15:03:32.993Z,19.13
2018-02-05T15:05:59.342Z,15.33
2018-02-05T15:08:25.622Z,16.23
2018-02-05T15:10:51.919Z,14.60
2018-02-05T15:13:18.251Z,10.40
2018-02-05T15:15:44.602Z,11.53
2018-02-05T15:18:10.917Z,12.13
2018-02-05T15:20:37.350Z,13.20
2018-02-05T15:23:03.645Z,15.13
2018-02-05T15:25:29.960Z,10.53
2018-02-05T15:27:57.030Z,9.90
2018-02-05T15:30:23.410Z,7.43
2018-02-05T15:32:49.731Z,8.03
2018-02-05T15:35:16.000Z,11.00
2018-02-05T15:37:43.030Z,12.30
2018-02-05T15:40:09.368Z,13.53
2018-02-05T15:42:35.658Z,12.07
2018-02-05T15:45:01.952Z,14.50
2018-02-05T15:47:28.301Z,11.27
2018-02-05T15:49:54.596Z,11.40
2018-02-05T15:52:21.600Z,13.60
2018-02-05T15:54:47.899Z,12.83
2018-02-05T15:57:14.253Z,11.97
2018-02-05T15:59:40.526Z,12.40
2018-02-05T16:02:06.867Z,12.60
2018-02-05T16:04:33.897Z,11.83
2018-02-05T16:07:00.259Z,13.20
2018-02-05T16:12:22.313Z,24.60
2018-02-05T16:14:49.402Z,17.13
2018-02-05T16:17:15.704Z,17.23
2018-02-05T16:19:42.059Z,18.60
2018-02-05T16:22:08.328Z,18.47
2018-02-05T16:24:34.661Z,20.90
2018-02-05T16:27:00.987Z,15.00
2018-02-05T16:29:27.226Z,17.50
2018-02-05T16:31:53.524Z,22.80
2018-02-05T16:34:19.771Z,14.13
2018-02-05T16:36:46.047Z,15.77
2018-02-05T16:39:12.532Z,17.93
2018-02-05T16:41:38.790Z,16.83
2018-02-05T16:44:05.796Z,16.80
2018-02-05T16:46:32.081Z,18.93
2018-02-05T16:48:59.396Z,16.00
2018-02-05T16:51:25.821Z,15.70
2018-02-05T16:53:52.157Z,18.83
2018-02-05T16:56:18.411Z,16.00
2018-02-05T16:58:44.717Z,16.37
2018-02-05T17:01:11.285Z,17.57
2018-02-05T17:03:38.357Z,16.63
2018-02-05T17:06:04.634Z,16.57
2018-02-05T17:08:30.946Z,16.83
2018-02-05T17:11:00.898Z,21.27
2018-02-05T17:13:27.176Z,18.10
2018-02-05T17:15:58.369Z,14.80
2018-02-05T17:18:24.619Z,17.50
2018-02-05T17:20:52.956Z,17.73
2018-02-05T17:23:19.226Z,12.83
2018-02-05T17:25:46.231Z,16.27
2018-02-05T17:28:12.562Z,14.70
2018-02-05T17:30:38.840Z,19.33
2018-02-05T17:33:05.856Z,16.10
2018-02-05T17:35:32.184Z,13.47
2018-02-05T17:37:58.510Z,14.03
2018-02-05T17:40:24.809Z,18.60
2018-02-05T17:42:51.239Z,18.47
2018-02-05T17:45:17.591Z,17.87
2018-02-05T17:47:43.913Z,18.47
2018-02-05T17:50:10.200Z,13.50
2018-02-05T17:52:37.313Z,10.00
2018-02-05T17:55:03.606Z,19.77
2018-02-05T17:57:29.883Z,18.20
2018-02-05T17:59:56.201Z,17.50
2018-02-05T18:02:22.505Z,17.03
2018-02-05T18:04:48.796Z,11.57
2018-02-05T18:07:15.814Z,13.70
2018-02-05T18:09:42.119Z,13.03
2018-02-05T18:12:08.508Z,14.57
2018-02-05T18:14:35.521Z,13.93
2018-02-05T18:17:01.838Z,9.23
2018-02-05T18:19:28.164Z,12.70
2018-02-05T18:21:54.422Z,18.10
2018-02-05T18:24:21.749Z,17.30
2018-02-05T18:26:48.090Z,7.50
2018-02-05T18:29:14.430Z,11.97
2018-02-05T18:31:40.780Z,14.00
2018-02-05T18:34:07.062Z,11.13
2018-02-05T18:36:33.337Z,14.10
2018-02-05T18:38:59.653Z,14.13
2018-02-05T18:41:26.007Z,14.07
2018-02-05T18:43:52.326Z,11.80
2018-02-05T18:46:18.624Z,36.07
2018-02-05T18:48:45.095Z,14.00
2018-02-05T18:51:11.519Z,10.10
2018-02-05T18:53:37.845Z,27.83
2018-02-05T18:56:04.203Z,11.40
2018-02-05T18:58:31.297Z,15.90
2018-02-05T19:00:57.591Z,13.30
2018-02-05T19:03:24.669Z,16.03
2018-02-05T19:05:50.993Z,14.00
2018-02-05T19:08:17.372Z,14.83
2018-02-05T19:10:43.654Z,8.70
2018-02-05T19:13:09.943Z,15.67
2018-02-05T19:15:36.237Z,12.80
2018-02-05T19:18:02.542Z,15.47
2018-02-05T19:20:28.804Z,21.07
2018-02-05T19:22:55.082Z,19.93
2018-02-05T19:25:22.152Z,18.17
2018-02-05T19:27:48.448Z,12.03
2018-02-05T19:30:14.803Z,8.77
2018-02-05T19:32:41.894Z,9.10
2018-02-05T19:35:08.203Z,17.30
2018-02-05T19:37:34.719Z,11.67
2018-02-05T19:40:01.777Z,12.60
2018-02-05T19:42:28.101Z,9.50
2018-02-05T19:44:55.150Z,13.43
2018-02-05T19:47:21.623Z,11.20
2018-02-05T19:49:47.957Z,10.33
2018-02-05T19:52:14.237Z,15.47
2018-02-05T19:54:41.327Z,10.87
2018-02-05T19:57:07.642Z,6.57
2018-02-05T19:59:33.938Z,11.57
2018-02-05T20:02:01.006Z,8.77
2018-02-05T20:04:29.004Z,10.67
2018-02-05T20:06:55.294Z,20.87
2018-02-05T20:09:22.306Z,33.57
2018-02-05T20:11:48.674Z,15.50
2018-02-05T20:14:15.748Z,11.67
2018-02-05T20:16:42.120Z,14.93
2018-02-05T20:19:08.509Z,24.30
2018-02-05T20:21:34.817Z,19.47
2018-02-05T20:24:01.880Z,29.17
2018-02-05T20:26:28.273Z,12.53
2018-02-05T20:28:54.637Z,10.53
2018-02-05T20:31:20.911Z,14.50
2018-02-05T20:33:47.225Z,17.80
2018-02-05T20:36:13.526Z,9.83
2018-02-05T20:38:40.686Z,12.77
2018-02-05T20:41:07.746Z,12.50
2018-02-05T20:43:34.046Z,12.70
2018-02-05T20:46:01.098Z,11.07
2018-02-05T20:48:28.122Z,9.13
2018-02-05T20:50:54.417Z,16.13
2018-02-05T20:53:20.762Z,9.20
2018-02-05T20:55:47.057Z,12.80
2018-02-05T20:58:13.410Z,15.10
2018-02-05T21:00:39.694Z,9.47
2018-02-05T21:03:06.738Z,10.87
2018-02-05T21:05:33.045Z,11.77
2018-02-05T21:07:59.351Z,14.40
2018-02-05T21:10:25.681Z,18.63
2018-02-05T21:12:51.986Z,10.23
2018-02-05T21:15:18.357Z,13.33
2018-02-05T21:17:44.661Z,12.37
2018-02-05T21:20:11.678Z,11.27
2018-02-05T21:22:38.839Z,16.37
2018-02-05T21:25:05.943Z,11.97
2018-02-05T21:27:32.217Z,13.03
2018-02-05T21:29:59.371Z,11.33
2018-02-05T21:32:26.422Z,16.17
2018-02-05T21:34:55.068Z,14.30
2018-02-05T21:37:21.364Z,17.07
2018-02-05T21:39:47.674Z,13.07
2018-02-05T21:42:14.015Z,12.53
2018-02-05T21:44:40.306Z,12.60
2018-02-05T21:47:07.134Z,11.87
2018-02-05T21:49:33.471Z,17.63
2018-02-05T21:51:59.787Z,17.10
2018-02-05T21:54:26.160Z,13.33
2018-02-05T21:56:53.193Z,14.47
2018-02-05T21:59:19.510Z,13.97
2018-02-05T22:01:45.820Z,14.00
2018-02-05T22:04:12.214Z,12.90
2018-02-05T22:09:36.328Z,13.40
2018-02-05T22:12:31.879Z,16.47
2018-02-05T22:14:58.977Z,11.80
2018-02-05T22:17:26.009Z,11.50
2018-02-05T22:19:52.999Z,13.77
2018-02-05T22:22:21.521Z,13.03
2018-02-05T22:24:47.860Z,12.63
2018-02-05T22:27:14.138Z,14.10
2018-02-05T22:29:40.478Z,13.63
2018-02-05T22:32:30.755Z,16.07
2018-02-05T22:34:57.055Z,19.37
2018-02-05T22:37:24.056Z,15.87
2018-02-05T22:39:50.353Z,12.30
2018-02-05T22:42:16.661Z,16.50
2018-02-05T22:47:40.907Z,16.40
2018-02-05T22:50:07.220Z,11.00
2018-02-05T22:52:33.561Z,15.60
2018-02-05T22:54:59.917Z,13.03
2018-02-05T22:57:26.205Z,15.00
2018-02-05T22:59:53.250Z,13.67
2018-02-05T23:02:19.697Z,17.43
2018-02-05T23:04:46.007Z,11.53
2018-02-05T23:07:12.264Z,16.57
2018-02-05T23:09:38.516Z,14.63
2018-02-05T23:12:04.799Z,15.37
2018-02-05T23:14:31.854Z,11.50
2018-02-05T23:16:58.937Z,17.90
2018-02-05T23:19:25.207Z,24.97
2018-02-05T23:21:51.522Z,17.63
2018-02-05T23:24:17.819Z,14.53
2018-02-05T23:26:44.142Z,15.90
2018-02-05T23:29:10.454Z,17.50
2018-02-05T23:31:37.520Z,15.77
2018-02-05T23:34:03.816Z,18.30
2018-02-05T23:36:30.070Z,19.13
2018-02-05T23:38:56.384Z,16.40
2018-02-05T23:41:22.751Z,17.03
2018-02-05T23:43:49.141Z,16.87
2018-02-05T23:46:15.461Z,14.50
2018-02-05T23:48:41.758Z,20.63
2018-02-05T23:51:08.053Z,20.30
2018-02-05T23:53:34.415Z,16.63
2018-02-05T23:56:00.705Z,18.63
2018-02-05T23:58:27.757Z,19.10
